Time;durP1;ratioP1;P1;durP2;ratioP2;P2;SDS_P1;SDS_P2;PMS_P1;PMS_P2;Temp;Humidity;BMP_temperature;BMP_pressure;BME280_temperature;BME280_humidity;BME280_pressure;Samples;Min_cycle;Max_cycle;Signal;HPM_P1;HPM_P2
2021/09/05 00:02:01;;;;;;;;;;;;;;;19.19;54.64;101708.13;4981116;28;97752;-78
2021/09/05 00:04:28;;;;;;;;;;;;;;;19.13;54.82;101697.75;4980215;28;98818;-79
2021/09/05 00:06:54;;;;;;;;;;;;;;;18.95;55.11;101696.97;4980441;28;96829;-77
2021/09/05 00:09:20;;;;;;;;;;;;;;;18.95;55.64;101704.13;4983594;28;96719;-78
2021/09/05 00:11:48;;;;;;;;;;;;;;;18.92;55.78;101698.94;4982690;28;99488;-80
2021/09/05 00:14:14;;;;;;;;;;;;;;;18.84;55.87;101698.50;4980691;28;100842;-78
2021/09/05 00:16:40;;;;;;;;;;;;;;;18.54;56.88;101698.31;4972557;28;97984;-78
2021/09/05 00:19:07;;;;;;;;;;;;;;;18.67;56.72;101711.00;4978502;28;96762;-79
2021/09/05 00:21:33;;;;;;;;;;;;;;;18.49;57.43;101705.72;4962964;28;99217;-78
2021/09/05 00:23:59;;;;;;;;;;;;;;;18.47;57.42;101703.13;4964102;28;97827;-78
2021/09/05 00:26:26;;;;;;;;;;;;;;;18.55;57.34;101711.66;4980597;28;97626;-79
2021/09/05 00:28:53;;;;;;;;;;;;;;;18.64;56.93;101711.13;4978527;28;97215;-77
2021/09/05 00:31:21;;;;;;;;;;;;;;;18.61;57.07;101713.13;4976280;28;99180;-78
2021/09/05 00:33:47;;;;;;;;;;;;;;;18.53;57.19;101718.84;4969433;28;97814;-78
2021/09/05 00:36:13;;;;;;;;;;;;;;;18.30;57.93;101724.56;4974207;28;96809;-78
2021/09/05 00:38:39;;;;;;;;;;;;;;;18.41;57.78;101724.00;4976893;28;96754;-78
2021/09/05 00:41:06;;;;;;;;;;;;;;;18.41;57.77;101722.19;4973610;28;98939;-78
2021/09/05 00:43:32;;;;;;;;;;;;;;;18.42;57.70;101726.59;4971052;28;100586;-78
2021/09/05 00:45:59;;;;;;;;;;;;;;;18.33;57.71;101721.72;4973832;28;96838;-76
2021/09/05 00:48:26;;;;;;;;;;;;;;;18.48;57.47;101728.94;4973692;28;96983;-78
2021/09/05 00:50:52;;;;;;;;;;;;;;;18.46;57.49;101722.81;4973315;28;98238;-78
2021/09/05 00:53:18;;;;;;;;;;;;;;;18.35;57.82;101730.53;4976246;28;102047;-79
2021/09/05 00:55:45;;;;;;;;;;;;;;;18.32;57.92;101719.97;4977289;28;98710;-78
2021/09/05 00:58:11;;;;;;;;;;;;;;;18.29;58.01;101726.38;4976185;28;97291;-79
2021/09/05 01:00:38;;;;;;;;;;;;;;;18.14;58.30;101731.63;4976321;28;99328;-78
2021/09/05 01:03:05;;;;;;;;;;;;;;;18.17;58.50;101731.50;4976105;28;98839;-78
2021/09/05 01:05:32;;;;;;;;;;;;;;;18.08;58.66;101727.47;4974783;28;96815;-79
2021/09/05 01:07:58;;;;;;;;;;;;;;;18.08;58.70;101734.63;4974988;28;96817;-79
2021/09/05 01:10:25;;;;;;;;;;;;;;;18.07;58.76;101724.88;4976347;28;98875;-78
2021/09/05 01:12:52;;;;;;;;;;;;;;;18.11;58.54;101727.34;4973149;28;97732;-79
2021/09/05 01:15:18;;;;;;;;;;;;;;;18.16;58.43;101735.97;4972924;28;98845;-79
2021/09/05 01:17:44;;;;;;;;;;;;;;;18.01;58.96;101727.88;4976715;28;97236;-78
2021/09/05 01:20:12;;;;;;;;;;;;;;;17.96;59.06;101730.78;4973165;28;98881;-77
2021/09/05 01:22:38;;;;;;;;;;;;;;;17.99;58.93;101737.75;4971812;28;99250;-78
2021/09/05 01:25:05;;;;;;;;;;;;;;;18.04;58.94;101736.63;4968673;28;96824;-79
2021/09/05 01:27:32;;;;;;;;;;;;;;;18.01;58.67;101741.22;4976973;28;97358;-79
2021/09/05 01:29:58;;;;;;;;;;;;;;;18.22;58.48;101746.38;4975974;28;98197;-79
2021/09/05 01:32:25;;;;;;;;;;;;;;;18.31;58.44;101745.88;4978040;28;98961;-79
2021/09/05 01:34:51;;;;;;;;;;;;;;;18.17;59.23;101744.88;4973240;28;97284;-79
2021/09/05 01:37:17;;;;;;;;;;;;;;;18.25;57.86;101746.19;4976358;28;96980;-79
2021/09/05 01:39:43;;;;;;;;;;;;;;;18.25;57.99;101751.53;4975098;28;101356;-79
2021/09/05 01:42:10;;;;;;;;;;;;;;;18.16;58.34;101745.81;4975151;28;101749;-79
2021/09/05 01:44:37;;;;;;;;;;;;;;;18.17;58.51;101744.88;4975000;28;96820;-79
2021/09/05 01:47:04;;;;;;;;;;;;;;;17.94;59.18;101740.69;4976545;28;97040;-78
2021/09/05 01:49:30;;;;;;;;;;;;;;;18.07;58.81;101743.59;4976438;28;98931;-79
2021/09/05 01:51:56;;;;;;;;;;;;;;;18.03;59.20;101750.06;4975878;28;101137;-80
2021/09/05 01:54:23;;;;;;;;;;;;;;;17.92;59.43;101739.88;4975403;28;96978;-79
2021/09/05 01:56:49;;;;;;;;;;;;;;;17.95;59.24;101741.53;4975675;28;96914;-77
2021/09/05 01:59:15;;;;;;;;;;;;;;;17.99;58.93;101740.44;4975217;28;98878;-77
2021/09/05 02:01:42;;;;;;;;;;;;;;;17.88;59.70;101749.88;4973123;28;97589;-78
2021/09/05 02:04:09;;;;;;;;;;;;;;;17.83;59.53;101749.25;4976084;28;96979;-78
2021/09/05 02:06:35;;;;;;;;;;;;;;;18.00;59.31;101750.19;4976526;28;97759;-77
2021/09/05 02:09:01;;;;;;;;;;;;;;;17.96;59.10;101762.88;4965253;28;100003;-78
2021/09/05 02:11:28;;;;;;;;;;;;;;;17.91;59.41;101752.41;4971409;28;98854;-78
2021/09/05 02:13:54;;;;;;;;;;;;;;;17.85;59.69;101758.03;4972047;28;96899;-78
2021/09/05 02:16:20;;;;;;;;;;;;;;;17.81;59.65;101772.50;4974734;28;97094;-79
2021/09/05 02:18:48;;;;;;;;;;;;;;;17.81;60.06;101767.16;4973908;28;98862;-78
2021/09/05 02:21:14;;;;;;;;;;;;;;;17.89;59.63;101772.13;4972477;28;100485;-78
2021/09/05 02:23:40;;;;;;;;;;;;;;;17.69;60.12;101773.13;4970520;28;98848;-78
2021/09/05 02:26:07;;;;;;;;;;;;;;;17.92;59.37;101777.31;4974076;28;99496;-78
2021/09/05 02:28:33;;;;;;;;;;;;;;;17.88;59.77;101773.94;4973151;28;97872;-80
2021/09/05 02:30:59;;;;;;;;;;;;;;;18.01;59.13;101781.34;4974278;28;98862;-77
2021/09/05 02:33:25;;;;;;;;;;;;;;;18.14;59.21;101777.97;4974591;28;98604;-77
2021/09/05 02:35:53;;;;;;;;;;;;;;;18.32;59.05;101778.84;4970499;28;96982;-78
2021/09/05 02:38:20;;;;;;;;;;;;;;;18.11;59.51;101779.97;4975071;28;99260;-79
2021/09/05 02:40:46;;;;;;;;;;;;;;;18.30;58.97;101788.78;4973240;28;98129;-77
2021/09/05 02:43:12;;;;;;;;;;;;;;;18.44;58.74;101791.63;4974731;28;96903;-78
2021/09/05 02:45:39;;;;;;;;;;;;;;;18.46;58.73;101796.88;4973599;28;98643;-78
2021/09/05 02:48:05;;;;;;;;;;;;;;;18.49;59.35;101786.88;4973980;28;100667;-78
2021/09/05 02:50:31;;;;;;;;;;;;;;;18.65;59.51;101790.50;4968901;28;98854;-78
2021/09/05 02:52:59;;;;;;;;;;;;;;;18.71;59.40;101786.63;4973915;28;96872;-78
2021/09/05 02:55:25;;;;;;;;;;;;;;;18.65;60.02;101795.88;4974659;28;97016;-78
2021/09/05 02:57:52;;;;;;;;;;;;;;;18.57;60.71;101790.06;4972110;28;99250;-77
2021/09/05 03:00:18;;;;;;;;;;;;;;;18.80;59.98;101796.88;4973052;28;98963;-77
2021/09/05 03:02:44;;;;;;;;;;;;;;;18.61;60.10;101790.75;4974346;28;97371;-77
2021/09/05 03:05:11;;;;;;;;;;;;;;;18.51;60.56;101790.31;4970770;28;96925;-78
2021/09/05 03:07:37;;;;;;;;;;;;;;;18.45;61.26;101801.34;4972553;28;98960;-78
2021/09/05 03:10:05;;;;;;;;;;;;;;;18.47;61.05;101794.13;4974815;28;99091;-78
2021/09/05 03:12:31;;;;;;;;;;;;;;;18.57;60.74;101792.75;4974538;28;96872;-77
2021/09/05 03:14:59;;;;;;;;;;;;;;;18.48;60.71;101801.22;4973336;28;97127;-77
2021/09/05 03:17:26;;;;;;;;;;;;;;;18.20;61.74;101800.88;4973178;28;98905;-77
2021/09/05 03:19:52;;;;;;;;;;;;;;;18.31;61.36;101804.72;4971946;28;99254;-78
2021/09/05 03:22:18;;;;;;;;;;;;;;;18.51;61.15;101805.53;4971993;28;97260;-77
2021/09/05 03:24:44;;;;;;;;;;;;;;;18.41;61.20;101802.47;4973149;28;96912;-77
2021/09/05 03:27:12;;;;;;;;;;;;;;;18.16;61.75;101799.31;4972411;28;99045;-78
2021/09/05 03:29:38;;;;;;;;;;;;;;;18.23;61.44;101803.41;4971565;28;97772;-77
2021/09/05 03:32:05;;;;;;;;;;;;;;;18.22;61.61;101799.00;4975498;28;96775;-79
2021/09/05 03:34:31;;;;;;;;;;;;;;;18.19;61.32;101801.81;4973700;28;98347;-77
2021/09/05 03:36:58;;;;;;;;;;;;;;;18.28;61.04;101794.19;4972559;28;98121;-77
2021/09/05 03:39:24;;;;;;;;;;;;;;;18.29;60.82;101808.44;4972736;28;98787;-78
2021/09/05 03:41:50;;;;;;;;;;;;;;;18.05;61.68;101804.34;4974825;28;98441;-78
2021/09/05 03:44:18;;;;;;;;;;;;;;;18.14;61.10;101795.84;4972300;28;97173;-77
2021/09/05 03:46:44;;;;;;;;;;;;;;;18.29;60.51;101800.41;4971797;28;98939;-79
2021/09/05 03:49:10;;;;;;;;;;;;;;;18.20;60.60;101795.53;4971064;28;99109;-78
2021/09/05 03:51:36;;;;;;;;;;;;;;;18.20;60.28;101795.53;4971787;28;96737;-78
2021/09/05 03:54:03;;;;;;;;;;;;;;;18.12;60.48;101811.09;4972042;28;97213;-78
2021/09/05 03:56:29;;;;;;;;;;;;;;;18.08;60.80;101812.19;4973687;28;100083;-78
2021/09/05 03:58:55;;;;;;;;;;;;;;;18.22;60.42;101812.38;4975051;28;99177;-79
2021/09/05 04:01:23;;;;;;;;;;;;;;;18.28;60.39;101814.75;4974885;28;97025;-78
2021/09/05 04:03:49;;;;;;;;;;;;;;;18.03;60.72;101815.09;4973315;28;96958;-78
2021/09/05 04:06:15;;;;;;;;;;;;;;;18.21;60.61;101813.31;4965967;28;99184;-77
2021/09/05 04:08:45;;;;;;;;;;;;;;;18.35;59.88;101816.16;4972209;28;99237;-77
2021/09/05 04:11:11;;;;;;;;;;;;;;;17.89;61.31;101817.59;4969664;28;96959;-78
2021/09/05 04:13:37;;;;;;;;;;;;;;;18.11;60.54;101817.41;4961516;28;96878;-78
2021/09/05 04:16:04;;;;;;;;;;;;;;;18.18;60.37;101818.84;4966889;28;98862;-78
2021/09/05 04:18:32;;;;;;;;;;;;;;;18.23;59.87;101823.00;4973779;28;98890;-78
2021/09/05 04:20:58;;;;;;;;;;;;;;;18.36;59.55;101828.59;4966472;28;96957;-78
2021/09/05 04:23:25;;;;;;;;;;;;;;;18.29;59.65;101828.03;4971354;28;97171;-78
2021/09/05 04:25:51;;;;;;;;;;;;;;;17.75;60.78;101833.44;4973338;28;99253;-79
2021/09/05 04:28:17;;;;;;;;;;;;;;;18.13;59.82;101829.75;4970199;28;99478;-78
2021/09/05 04:30:44;;;;;;;;;;;;;;;17.83;59.78;101828.59;4974169;28;97123;-79
2021/09/05 04:33:10;;;;;;;;;;;;;;;17.83;60.19;101833.94;4975109;28;96787;-79
2021/09/05 04:35:38;;;;;;;;;;;;;;;18.02;59.60;101828.56;4969830;28;97925;-78
2021/09/05 04:38:04;;;;;;;;;;;;;;;17.78;59.97;101826.16;4972370;28;98096;-78
2021/09/05 04:40:31;;;;;;;;;;;;;;;18.09;58.87;101836.19;4973995;28;96842;-77
2021/09/05 04:42:57;;;;;;;;;;;;;;;18.02;59.04;101839.25;4961739;28;97167;-78
2021/09/05 04:45:23;;;;;;;;;;;;;;;18.09;58.66;101836.19;4968998;28;98912;-77
2021/09/05 04:47:49;;;;;;;;;;;;;;;18.10;58.48;101842.41;4978733;28;99792;-78
2021/09/05 04:50:16;;;;;;;;;;;;;;;18.06;58.27;101852.38;4973602;28;96910;-78
2021/09/05 04:52:43;;;;;;;;;;;;;;;18.26;57.81;101849.59;4973981;28;96945;-77
2021/09/05 04:55:09;;;;;;;;;;;;;;;18.49;57.38;101856.47;4973166;28;99014;-78
2021/09/05 04:57:36;;;;;;;;;;;;;;;18.54;56.52;101859.78;4973299;28;99029;-78
2021/09/05 05:00:02;;;;;;;;;;;;;;;18.44;56.89;101863.00;4971194;28;97201;-78
2021/09/05 05:02:30;;;;;;;;;;;;;;;18.37;56.65;101857.09;4972594;28;97092;-78
2021/09/05 05:04:56;;;;;;;;;;;;;;;18.52;56.28;101866.13;4972582;28;99240;-78
2021/09/05 05:07:22;;;;;;;;;;;;;;;18.14;57.42;101870.72;4974065;28;99146;-79
2021/09/05 05:09:53;;;;;;;;;;;;;;;17.56;58.97;101868.16;4963349;28;96818;-79
2021/09/05 05:12:19;;;;;;;;;;;;;;;18.20;57.07;101883.81;4972805;28;97768;-78
2021/09/05 05:14:46;;;;;;;;;;;;;;;18.33;56.34;101876.91;4970308;28;98863;-78
2021/09/05 05:17:12;;;;;;;;;;;;;;;18.47;55.86;101882.44;4973392;28;99194;-79
2021/09/05 05:19:38;;;;;;;;;;;;;;;18.47;56.00;101885.13;4968333;28;97142;-79
2021/09/05 05:22:05;;;;;;;;;;;;;;;18.53;55.37;101882.13;4972818;28;96869;-78
2021/09/05 05:24:31;;;;;;;;;;;;;;;18.32;55.74;101888.53;4970513;28;99288;-78
2021/09/05 05:26:59;;;;;;;;;;;;;;;18.53;55.04;101895.50;4973751;28;98860;-78
2021/09/05 05:29:25;;;;;;;;;;;;;;;18.18;55.61;101899.09;4973889;28;96850;-78
2021/09/05 05:31:53;;;;;;;;;;;;;;;18.58;55.16;101903.31;4975955;28;96864;-78
2021/09/05 05:34:19;;;;;;;;;;;;;;;18.41;54.82;101905.97;4978216;28;98164;-79
2021/09/05 05:36:45;;;;;;;;;;;;;;;18.47;54.86;101902.97;4980103;28;97700;-78
2021/09/05 05:39:11;;;;;;;;;;;;;;;18.75;53.89;101910.53;4979740;28;96806;-78
2021/09/05 05:41:38;;;;;;;;;;;;;;;18.51;54.26;101907.25;4983049;28;96916;-78
2021/09/05 05:44:06;;;;;;;;;;;;;;;18.57;54.05;101907.84;4985728;28;98899;-78
2021/09/05 05:46:32;;;;;;;;;;;;;;;18.73;53.97;101915.94;4981546;28;98781;-78
2021/09/05 05:48:58;;;;;;;;;;;;;;;18.81;53.38;101915.56;4987661;28;96657;-78
2021/09/05 05:51:25;;;;;;;;;;;;;;;18.91;52.95;101916.81;4977308;28;97985;-77
2021/09/05 05:53:51;;;;;;;;;;;;;;;18.80;53.26;101917.38;4973864;28;97837;-78
2021/09/05 05:56:17;;;;;;;;;;;;;;;19.12;52.38;101918.38;4980029;28;99054;-79
2021/09/05 05:58:44;;;;;;;;;;;;;;;19.21;52.22;101925.94;4984494;28;96743;-77
2021/09/05 06:01:11;;;;;;;;;;;;;;;19.13;52.15;101914.75;4983363;28;96915;-78
2021/09/05 06:03:38;;;;;;;;;;;;;;;19.05;52.19;101925.88;4982241;28;99148;-78
2021/09/05 06:06:04;;;;;;;;;;;;;;;18.97;52.36;101927.22;4978384;28;97833;-79
2021/09/05 06:08:30;;;;;;;;;;;;;;;18.97;52.48;101928.06;4970843;28;97073;-77
2021/09/05 06:10:57;;;;;;;;;;;;;;;19.34;51.37;101931.50;4976628;28;96868;-79
2021/09/05 06:13:23;;;;;;;;;;;;;;;19.02;52.16;101926.03;4975893;28;98774;-79
2021/09/05 06:15:49;;;;;;;;;;;;;;;19.42;51.15;101943.56;4975552;28;99074;-77
2021/09/05 06:18:17;;;;;;;;;;;;;;;19.60;50.97;101943.53;4973550;28;96865;-77
2021/09/05 06:20:43;;;;;;;;;;;;;;;19.90;50.03;101931.13;4974243;28;96907;-78
2021/09/05 06:23:10;;;;;;;;;;;;;;;19.62;50.50;101925.56;4971950;28;99138;-78
2021/09/05 06:25:36;;;;;;;;;;;;;;;19.75;50.21;101932.00;4973874;28;101002;-78
2021/09/05 06:28:02;;;;;;;;;;;;;;;19.21;51.56;101931.28;4976098;28;96892;-77
2021/09/05 06:30:28;;;;;;;;;;;;;;;19.56;50.67;101948.19;4974575;28;96907;-78
2021/09/05 06:32:55;;;;;;;;;;;;;;;19.90;49.49;101941.84;4974906;28;98975;-77
2021/09/05 06:35:22;;;;;;;;;;;;;;;20.12;49.25;101945.06;4974238;28;98206;-78
2021/09/05 06:37:49;;;;;;;;;;;;;;;19.99;49.29;101945.84;4974728;28;96920;-78
2021/09/05 06:40:15;;;;;;;;;;;;;;;19.52;50.27;101952.00;4974381;28;98989;-79
2021/09/05 06:42:41;;;;;;;;;;;;;;;19.41;50.69;101947.19;4973545;28;99224;-79
2021/09/05 06:45:08;;;;;;;;;;;;;;;19.65;50.11;101958.44;4973455;28;98875;-78
2021/09/05 06:47:34;;;;;;;;;;;;;;;19.37;50.40;101950.09;4976316;28;96871;-78
2021/09/05 06:50:00;;;;;;;;;;;;;;;18.97;51.46;101948.66;4972918;28;97283;-77
2021/09/05 06:52:28;;;;;;;;;;;;;;;18.86;51.89;101945.63;4977190;28;98863;-78
2021/09/05 06:54:54;;;;;;;;;;;;;;;19.47;50.80;101952.25;4979585;28;98879;-78
2021/09/05 06:57:21;;;;;;;;;;;;;;;19.69;49.56;101953.78;4986111;28;96600;-77
2021/09/05 06:59:48;;;;;;;;;;;;;;;19.93;49.28;101948.88;4982268;28;96897;-78
2021/09/05 07:02:17;;;;;;;;;;;;;;;19.66;49.85;101954.81;4985926;28;98145;-77
2021/09/05 07:04:44;;;;;;;;;;;;;;;19.99;49.08;101956.56;4989087;28;97759;-77
2021/09/05 07:07:10;;;;;;;;;;;;;;;20.63;47.70;101959.16;4983256;28;96711;-77
2021/09/05 07:09:38;;;;;;;;;;;;;;;20.73;47.02;101955.00;4975165;28;96977;-77
2021/09/05 07:12:04;;;;;;;;;;;;;;;20.37;47.69;101958.00;4972951;28;98936;-77
2021/09/05 07:14:31;;;;;;;;;;;;;;;20.99;46.40;101961.50;4970500;28;98948;-77
2021/09/05 07:16:57;;;;;;;;;;;;;;;21.20;45.76;101970.16;4966901;28;96917;-77
2021/09/05 07:19:23;;;;;;;;;;;;;;;21.32;45.29;101970.25;4975374;28;96968;-78
2021/09/05 07:21:49;;;;;;;;;;;;;;;21.44;45.16;101968.63;4967728;28;99982;-77
2021/09/05 07:24:16;;;;;;;;;;;;;;;21.16;45.84;101972.13;4963821;28;98930;-78
2021/09/05 07:26:43;;;;;;;;;;;;;;;21.20;45.75;101970.97;4971990;28;96838;-79
2021/09/05 07:29:09;;;;;;;;;;;;;;;20.79;46.72;101976.13;4973424;28;97515;-80
2021/09/05 07:31:36;;;;;;;;;;;;;;;21.20;45.96;101972.84;4972077;28;99411;-77
2021/09/05 07:34:02;;;;;;;;;;;;;;;21.08;46.37;101971.69;4973045;28;98771;-77
2021/09/05 07:36:28;;;;;;;;;;;;;;;21.41;45.37;101982.25;4969302;28;98369;-77
2021/09/05 07:38:54;;;;;;;;;;;;;;;21.06;46.29;101985.25;4974020;28;96879;-78
2021/09/05 07:41:21;;;;;;;;;;;;;;;21.03;46.02;101988.09;4972900;28;99366;-77
2021/09/05 07:43:48;;;;;;;;;;;;;;;20.87;46.11;101984.56;4973676;28;98776;-77
2021/09/05 07:46:15;;;;;;;;;;;;;;;21.41;45.18;101984.94;4974039;28;96825;-76
2021/09/05 07:48:41;;;;;;;;;;;;;;;21.50;44.64;101986.22;4975960;28;97044;-76
2021/09/05 07:51:07;;;;;;;;;;;;;;;21.64;44.60;101991.59;4974022;28;98971;-76
2021/09/05 07:53:33;;;;;;;;;;;;;;;21.40;44.92;101994.81;4975240;28;99011;-76
2021/09/05 07:56:00;;;;;;;;;;;;;;;22.18;43.30;101992.66;4974626;28;97087;-76
2021/09/05 07:58:27;;;;;;;;;;;;;;;22.23;43.55;101995.94;4974931;28;97171;-76
2021/09/05 08:00:55;;;;;;;;;;;;;;;21.23;45.50;101994.13;4972500;28;99300;-76
2021/09/05 08:03:21;;;;;;;;;;;;;;;21.35;45.46;101996.06;4973827;28;98236;-77
2021/09/05 08:05:47;;;;;;;;;;;;;;;21.28;45.38;102000.97;4975229;28;96743;-77
2021/09/05 08:08:14;;;;;;;;;;;;;;;20.89;46.59;102006.84;4973746;28;96902;-77
2021/09/05 08:10:41;;;;;;;;;;;;;;;20.68;47.11;102010.78;4972888;28;98874;-77
2021/09/05 08:13:07;;;;;;;;;;;;;;;21.11;46.34;102011.84;4974101;28;98761;-78
2021/09/05 08:15:33;;;;;;;;;;;;;;;21.87;44.84;102013.41;4974086;28;97726;-78
2021/09/05 08:18:01;;;;;;;;;;;;;;;22.41;43.35;102005.50;4975432;28;96825;-77
2021/09/05 08:20:27;;;;;;;;;;;;;;;22.61;42.77;102020.34;4973558;28;99346;-77
2021/09/05 08:22:53;;;;;;;;;;;;;;;22.56;42.97;102019.78;4974737;28;97733;-79
2021/09/05 08:25:20;;;;;;;;;;;;;;;22.63;42.76;102018.44;4975407;28;96746;-79
2021/09/05 08:27:46;;;;;;;;;;;;;;;22.46;43.20;102015.97;4976837;28;96883;-78
2021/09/05 08:30:13;;;;;;;;;;;;;;;22.92;42.53;102017.38;4974053;28;99390;-78
2021/09/05 08:32:39;;;;;;;;;;;;;;;22.58;43.08;102024.09;4977168;28;98813;-78
2021/09/05 08:35:07;;;;;;;;;;;;;;;23.23;41.61;102020.69;4974208;28;97365;-76
2021/09/05 08:37:34;;;;;;;;;;;;;;;23.14;41.60;102024.88;4975842;28;96786;-75
2021/09/05 08:40:00;;;;;;;;;;;;;;;22.71;43.06;102023.31;4973501;28;98854;-76
2021/09/05 08:42:30;;;;;;;;;;;;;;;22.86;42.94;102023.16;4975209;28;98823;-76
2021/09/05 08:44:56;;;;;;;;;;;;;;;22.05;44.35;102032.09;4973832;28;96783;-78
2021/09/05 08:47:23;;;;;;;;;;;;;;;22.91;42.74;102025.53;4977403;28;96847;-77
2021/09/05 08:49:51;;;;;;;;;;;;;;;22.53;43.53;102023.53;4974707;28;101684;-77
2021/09/05 08:52:19;;;;;;;;;;;;;;;22.55;43.36;102018.94;4975747;28;99230;-77
2021/09/05 08:54:45;;;;;;;;;;;;;;;22.57;43.64;102030.47;4974098;28;96991;-77
2021/09/05 08:57:11;;;;;;;;;;;;;;;22.65;43.47;102032.63;4975518;28;96948;-77
2021/09/05 08:59:37;;;;;;;;;;;;;;;22.65;43.67;102033.50;4974721;28;99491;-77
2021/09/05 09:02:04;;;;;;;;;;;;;;;22.10;45.04;102032.66;4975197;28;98848;-76
2021/09/05 09:04:35;;;;;;;;;;;;;;;22.92;43.47;102033.53;4975897;28;96873;-78
2021/09/05 09:07:07;;;;;;;;;;;;;;;22.89;43.07;102039.16;4974083;28;97011;-76
2021/09/05 09:09:35;;;;;;;;;;;;;;;22.90;42.72;102035.50;4974447;28;98995;-76
2021/09/05 09:12:01;;;;;;;;;;;;;;;23.12;42.93;102040.28;4969602;28;98843;-77
2021/09/05 09:14:39;;;;;;;;;;;;;;;23.45;41.75;102037.13;4938648;28;96812;-76
2021/09/05 09:17:05;;;;;;;;;;;;;;;23.94;40.94;102045.38;4939210;28;96780;-77
2021/09/05 09:19:32;;;;;;;;;;;;;;;23.95;40.83;102044.41;4938086;28;99139;-77
2021/09/05 09:21:58;;;;;;;;;;;;;;;24.13;40.38;102039.53;4938171;28;98817;-76
2021/09/05 09:24:25;;;;;;;;;;;;;;;24.02;40.26;102042.13;4954070;28;96861;-77
2021/09/05 09:27:03;;;;;;;;;;;;;;;23.76;41.39;102038.59;4944720;28;97035;-77
2021/09/05 09:29:30;;;;;;;;;;;;;;;24.30;40.39;102035.63;4937918;28;100106;-77
2021/09/05 09:31:57;;;;;;;;;;;;;;;24.59;39.64;102037.91;4923023;28;98844;-77
2021/09/05 09:34:39;;;;;;;;;;;;;;;24.17;39.86;102049.13;4934331;28;96710;-77
2021/09/05 09:37:11;;;;;;;;;;;;;;;23.92;40.63;102047.31;4958558;28;96494;-75
2021/09/05 09:39:42;;;;;;;;;;;;;;;23.55;42.20;102040.94;4957863;28;98707;-76
2021/09/05 09:42:29;;;;;;;;;;;;;;;23.62;42.04;102039.56;4954375;28;97720;-77
2021/09/05 09:44:55;;;;;;;;;;;;;;;24.34;40.42;102037.13;4936192;28;97056;-76
2021/09/05 09:47:21;;;;;;;;;;;;;;;24.33;40.78;102038.97;4929230;28;96755;-77
2021/09/05 09:49:48;;;;;;;;;;;;;;;24.63;40.05;102033.13;4952440;28;98898;-76
2021/09/05 09:52:15;;;;;;;;;;;;;;;24.55;40.40;102031.00;4956998;28;99735;-77
2021/09/05 09:54:42;;;;;;;;;;;;;;;24.41;40.02;102020.38;4933727;28;97692;-77
2021/09/05 09:57:10;;;;;;;;;;;;;;;24.32;40.23;102028.28;4933405;28;96840;-77
2021/09/05 09:59:36;;;;;;;;;;;;;;;24.25;40.41;102027.00;4935553;28;99391;-78
2021/09/05 10:02:03;;;;;;;;;;;;;;;23.83;41.13;102031.75;4938067;28;99378;-78
2021/09/05 10:04:30;;;;;;;;;;;;;;;24.22;40.12;102019.97;4942802;28;97465;-77
2021/09/05 10:06:56;;;;;;;;;;;;;;;24.45;39.87;102024.56;4936351;28;96884;-77
2021/09/05 10:09:23;;;;;;;;;;;;;;;23.88;40.81;102028.75;4933403;28;99491;-77
2021/09/05 10:11:49;;;;;;;;;;;;;;;23.72;41.34;102026.25;4948470;28;99294;-77
2021/09/05 10:14:18;;;;;;;;;;;;;;;23.35;41.32;102023.41;4976054;28;97125;-77
2021/09/05 10:16:44;;;;;;;;;;;;;;;23.93;40.61;102032.84;4975677;28;96688;-77
2021/09/05 10:19:11;;;;;;;;;;;;;;;24.45;40.04;102026.41;4972771;28;98975;-77
2021/09/05 10:21:37;;;;;;;;;;;;;;;24.95;39.01;102022.63;4973573;28;98902;-76
2021/09/05 10:24:04;;;;;;;;;;;;;;;25.25;38.46;102024.84;4970176;28;97167;-77
2021/09/05 10:26:30;;;;;;;;;;;;;;;24.82;38.64;102019.09;4970190;28;97116;-77
2021/09/05 10:28:57;;;;;;;;;;;;;;;24.27;40.13;102023.22;4972619;28;99204;-78
2021/09/05 10:31:26;;;;;;;;;;;;;;;23.58;41.47;102020.97;4972192;28;98898;-77
2021/09/05 10:33:52;;;;;;;;;;;;;;;24.62;39.39;102023.28;4971710;28;97115;-77
2021/09/05 10:36:19;;;;;;;;;;;;;;;24.06;39.96;102017.50;4970848;28;97152;-77
2021/09/05 10:38:46;;;;;;;;;;;;;;;24.27;40.27;102008.84;4970119;28;97964;-79
2021/09/05 10:41:14;;;;;;;;;;;;;;;24.30;40.94;102008.59;4970335;28;98899;-77
2021/09/05 10:44:03;;;;;;;;;;;;;;;24.84;40.13;102000.94;4968686;28;96979;-78
2021/09/05 10:46:31;;;;;;;;;;;;;;;24.69;40.07;102005.66;4958777;28;97292;-78
2021/09/05 10:48:58;;;;;;;;;;;;;;;23.81;41.56;101999.50;4967607;28;97676;-78
2021/09/05 10:51:26;;;;;;;;;;;;;;;24.27;40.50;102004.31;4972575;28;98520;-77
2021/09/05 10:53:53;;;;;;;;;;;;;;;24.17;40.64;102008.59;4970166;28;96973;-77
2021/09/05 10:56:21;;;;;;;;;;;;;;;24.37;40.41;102015.28;4970117;28;97656;-77
2021/09/05 10:58:48;;;;;;;;;;;;;;;24.17;40.52;102014.88;4969892;28;97730;-78
2021/09/05 11:01:22;;;;;;;;;;;;;;;24.81;39.12;102003.88;4970735;28;99157;-77
2021/09/05 11:04:06;;;;;;;;;;;;;;;24.72;39.47;102015.38;4966870;28;97344;-77
2021/09/05 11:06:34;;;;;;;;;;;;;;;25.31;39.08;102011.72;4961270;28;97378;-77
2021/09/05 11:09:15;;;;;;;;;;;;;;;25.35;37.81;102005.06;4970516;28;98969;-76
2021/09/05 11:11:53;;;;;;;;;;;;;;;25.39;38.25;102003.00;4971143;28;98803;-76
2021/09/05 11:14:19;;;;;;;;;;;;;;;25.57;38.38;102004.31;4971726;28;97202;-76
2021/09/05 11:16:45;;;;;;;;;;;;;;;25.69;37.95;102000.63;4971858;28;97951;-76
2021/09/05 11:19:19;;;;;;;;;;;;;;;25.05;39.18;102004.75;4964242;28;98901;-76
2021/09/05 11:21:47;;;;;;;;;;;;;;;24.57;40.16;102001.16;4970313;28;98869;-76
2021/09/05 11:24:14;;;;;;;;;;;;;;;24.66;39.82;102002.34;4972564;28;96919;-75
2021/09/05 11:26:56;;;;;;;;;;;;;;;24.49;40.09;102008.97;4971882;28;97443;-77
2021/09/05 11:29:25;;;;;;;;;;;;;;;24.31;40.74;102002.22;4969951;28;99428;-75
2021/09/05 11:31:51;;;;;;;;;;;;;;;25.35;38.75;101999.66;4973420;28;98786;-76
2021/09/05 11:34:17;;;;;;;;;;;;;;;25.62;38.12;102007.50;4971482;28;97191;-74
2021/09/05 11:36:47;;;;;;;;;;;;;;;25.71;37.50;102001.38;4976548;28;97012;-75
2021/09/05 11:39:15;;;;;;;;;;;;;;;25.69;37.72;102002.47;4979074;28;97854;-75
2021/09/05 11:41:42;;;;;;;;;;;;;;;25.85;37.53;101997.56;4959809;28;99329;-75
2021/09/05 11:44:08;;;;;;;;;;;;;;;25.83;37.82;101998.66;4975202;28;97047;-76
2021/09/05 11:46:34;;;;;;;;;;;;;;;25.74;38.00;102006.53;4974791;28;98958;-78
2021/09/05 11:49:01;;;;;;;;;;;;;;;25.13;39.01;101994.22;4973981;28;99084;-76
2021/09/05 11:51:28;;;;;;;;;;;;;;;25.51;38.60;101993.94;4972719;28;98900;-76
2021/09/05 11:53:58;;;;;;;;;;;;;;;26.43;36.98;101995.56;4971548;28;96973;-76
2021/09/05 11:56:28;;;;;;;;;;;;;;;26.56;36.62;102001.69;4970719;28;97365;-76
2021/09/05 11:58:55;;;;;;;;;;;;;;;25.79;37.88;102004.34;4973256;28;98030;-76
2021/09/05 12:01:21;;;;;;;;;;;;;;;26.13;37.19;102001.59;4973189;28;99293;-77
2021/09/05 12:03:48;;;;;;;;;;;;;;;25.71;37.72;102001.38;4974548;28;96802;-77
2021/09/05 12:06:14;;;;;;;;;;;;;;;25.59;38.46;101996.94;4973467;28;97156;-76
2021/09/05 12:08:41;;;;;;;;;;;;;;;25.97;37.67;101990.28;4971334;28;98924;-76
2021/09/05 12:11:09;;;;;;;;;;;;;;;25.71;38.29;101985.13;4972598;28;99417;-77
2021/09/05 12:13:54;;;;;;;;;;;;;;;26.41;36.84;101979.41;4971210;28;97241;-78
2021/09/05 12:16:21;;;;;;;;;;;;;;;25.93;38.22;101980.72;4971269;28;97096;-76
2021/09/05 12:18:59;;;;;;;;;;;;;;;26.20;37.54;101976.59;4972150;28;99114;-77
2021/09/05 12:21:29;;;;;;;;;;;;;;;25.86;37.54;101985.75;4969774;28;98867;-76
2021/09/05 12:23:55;;;;;;;;;;;;;;;26.54;36.87;101979.25;4970945;28;97212;-76
2021/09/05 12:26:22;;;;;;;;;;;;;;;26.35;36.75;101985.34;4972112;28;97087;-77
2021/09/05 12:28:59;;;;;;;;;;;;;;;26.74;35.91;101978.44;4969004;28;101351;-76
2021/09/05 12:31:38;;;;;;;;;;;;;;;26.64;35.92;101979.38;4962793;28;97715;-77
2021/09/05 12:34:05;;;;;;;;;;;;;;;26.91;35.52;101971.66;4973168;28;97426;-75
2021/09/05 12:36:31;;;;;;;;;;;;;;;26.72;35.72;101966.00;4973740;28;97147;-77